createdAt,value
2022-10-13T00:00:47.319Z,13.95
2022-10-13T00:03:14.371Z,12.82
2022-10-13T00:05:46.516Z,13.13
2022-10-13T00:08:15.422Z,11.57
2022-10-13T00:10:43.934Z,9.45
2022-10-13T00:13:11.562Z,12.70
2022-10-13T00:15:40.062Z,11.82
2022-10-13T00:18:06.786Z,10.55
2022-10-13T00:20:33.326Z,9.77
2022-10-13T00:22:59.692Z,15.02
2022-10-13T00:25:26.126Z,9.75
2022-10-13T00:27:52.492Z,19.10
2022-10-13T00:30:20.110Z,7.70
2022-10-13T00:32:46.745Z,8.70
2022-10-13T00:35:13.572Z,11.60
2022-10-13T00:37:39.904Z,14.48
2022-10-13T00:40:07.560Z,13.65
2022-10-13T00:42:34.008Z,14.63
2022-10-13T00:45:21.434Z,17.13
2022-10-13T00:47:51.855Z,10.50
2022-10-13T00:50:23.882Z,11.48
2022-10-13T00:52:56.092Z,14.63
2022-10-13T00:55:28.511Z,8.85
2022-10-13T00:57:56.018Z,14.05
2022-10-13T01:00:30.219Z,14.95
2022-10-13T01:02:57.282Z,11.48
2022-10-13T01:05:24.820Z,7.88
2022-10-13T01:07:56.686Z,14.90
2022-10-13T01:10:48.781Z,18.55
2022-10-13T01:13:30.735Z,17.27
2022-10-13T01:16:17.362Z,14.85
2022-10-13T01:19:07.827Z,11.55
2022-10-13T01:21:47.381Z,14.25
2022-10-13T01:24:41.660Z,13.88
2022-10-13T01:27:21.724Z,13.63
2022-10-13T01:30:03.440Z,15.73
2022-10-13T01:32:58.602Z,12.80
2022-10-13T01:35:39.202Z,12.10
2022-10-13T01:38:13.485Z,7.97
2022-10-13T01:40:47.932Z,15.32
2022-10-13T01:43:22.215Z,12.70
2022-10-13T01:46:02.375Z,11.50
2022-10-13T01:48:29.632Z,8.90
2022-10-13T01:50:59.006Z,13.45
2022-10-13T01:53:26.858Z,15.07
2022-10-13T01:55:57.066Z,14.65
2022-10-13T01:58:27.285Z,10.07
2022-10-13T02:01:31.313Z,7.28
2022-10-13T02:04:10.025Z,10.73
2022-10-13T02:06:45.431Z,12.35
2022-10-13T02:09:28.171Z,10.68
2022-10-13T02:12:02.279Z,10.07
2022-10-13T02:14:36.168Z,13.13
2022-10-13T02:17:04.930Z,20.48
2022-10-13T02:19:36.142Z,9.23
2022-10-13T02:22:04.049Z,10.73
2022-10-13T02:24:30.747Z,9.45
2022-10-13T02:26:57.586Z,10.27
2022-10-13T02:29:24.248Z,9.93
2022-10-13T02:31:50.753Z,15.13
2022-10-13T02:34:17.157Z,9.60
2022-10-13T02:36:46.299Z,13.32
2022-10-13T02:39:12.927Z,9.80
2022-10-13T02:41:39.544Z,12.88
2022-10-13T02:44:06.805Z,12.95
2022-10-13T02:46:34.284Z,8.10
2022-10-13T02:49:00.906Z,10.00
2022-10-13T02:51:28.448Z,14.50
2022-10-13T02:53:54.880Z,11.15
2022-10-13T02:56:21.213Z,6.78
2022-10-13T02:58:47.677Z,12.85
2022-10-13T03:01:15.342Z,14.15
2022-10-13T03:03:42.307Z,9.45
2022-10-13T03:06:08.796Z,16.80
2022-10-13T03:08:36.312Z,11.30
2022-10-13T03:11:03.397Z,9.15
2022-10-13T03:13:29.944Z,11.63
2022-10-13T03:16:03.382Z,15.05
2022-10-13T03:18:30.089Z,9.75
2022-10-13T03:21:01.806Z,15.00
2022-10-13T03:23:28.502Z,13.00
2022-10-13T03:25:55.395Z,13.23
2022-10-13T03:28:22.639Z,10.85
2022-10-13T03:30:50.883Z,14.63
2022-10-13T03:33:17.424Z,10.98
2022-10-13T03:35:44.156Z,14.95
2022-10-13T03:38:11.145Z,10.05
2022-10-13T03:40:38.581Z,11.15
2022-10-13T03:43:05.000Z,11.88
2022-10-13T03:45:31.554Z,12.20
2022-10-13T03:47:58.469Z,12.25
2022-10-13T03:50:26.129Z,13.80
2022-10-13T03:52:54.188Z,14.32
2022-10-13T03:55:20.752Z,11.25
2022-10-13T03:57:47.124Z,14.32
2022-10-13T04:00:14.300Z,9.32
2022-10-13T04:02:41.791Z,13.07
2022-10-13T04:05:08.556Z,9.60
2022-10-13T04:07:34.993Z,15.23
2022-10-13T04:10:10.284Z,14.30
2022-10-13T04:12:38.373Z,11.07
2022-10-13T04:15:05.144Z,11.88
2022-10-13T04:17:31.478Z,13.63
2022-10-13T04:19:57.890Z,13.90
2022-10-13T04:22:24.212Z,15.43
2022-10-13T04:24:50.615Z,16.90
2022-10-13T04:27:19.029Z,10.25
2022-10-13T04:29:45.468Z,14.10
2022-10-13T04:32:11.904Z,10.15
2022-10-13T04:34:38.442Z,12.88
2022-10-13T04:37:04.775Z,15.23
2022-10-13T04:39:31.252Z,13.00
2022-10-13T04:41:57.672Z,12.68
2022-10-13T04:44:23.989Z,12.73
2022-10-13T04:46:50.352Z,12.73
2022-10-13T04:49:17.133Z,11.15
2022-10-13T04:51:43.563Z,12.85
2022-10-13T04:54:10.409Z,17.05
2022-10-13T04:56:36.809Z,12.43
2022-10-13T04:59:05.676Z,14.75
2022-10-13T05:01:33.003Z,13.48
2022-10-13T05:04:01.814Z,12.95
2022-10-13T05:06:48.593Z,16.42
2022-10-13T05:09:23.505Z,11.38
2022-10-13T05:11:49.855Z,12.68
2022-10-13T05:14:16.248Z,10.02
2022-10-13T05:16:42.680Z,13.40
2022-10-13T05:19:09.030Z,21.02
2022-10-13T05:21:35.482Z,13.85
2022-10-13T05:24:02.651Z,15.25
2022-10-13T05:26:31.897Z,13.85
2022-10-13T05:28:59.717Z,14.88
2022-10-13T05:31:30.859Z,15.68
2022-10-13T05:33:59.844Z,13.18
2022-10-13T05:36:32.334Z,12.65
2022-10-13T05:39:01.382Z,12.73
2022-10-13T05:41:28.977Z,13.77
2022-10-13T05:44:04.607Z,16.25
2022-10-13T05:46:31.214Z,12.90
2022-10-13T05:48:57.558Z,14.60
2022-10-13T05:51:30.024Z,13.43
2022-10-13T05:54:25.532Z,17.13
2022-10-13T05:56:57.271Z,12.57
2022-10-13T05:59:29.844Z,14.07
2022-10-13T06:01:56.433Z,11.93
2022-10-13T06:04:37.440Z,16.95
2022-10-13T06:07:04.091Z,17.15
2022-10-13T06:09:37.867Z,13.70
2022-10-13T06:12:05.471Z,15.23
2022-10-13T06:14:31.945Z,16.13
2022-10-13T06:16:58.337Z,14.73
2022-10-13T06:19:24.847Z,12.00
2022-10-13T06:21:51.353Z,21.63
2022-10-13T06:24:17.860Z,14.35
2022-10-13T06:26:44.412Z,20.42
2022-10-13T06:29:10.847Z,17.65
2022-10-13T06:31:37.656Z,14.35
2022-10-13T06:34:04.114Z,11.93
2022-10-13T06:36:31.428Z,13.05
2022-10-13T06:38:57.847Z,15.73
2022-10-13T06:41:24.284Z,19.25
2022-10-13T06:43:50.800Z,19.00
2022-10-13T06:46:17.350Z,16.25
2022-10-13T06:48:43.820Z,15.38
2022-10-13T06:51:12.204Z,19.25
2022-10-13T06:53:38.658Z,21.33
2022-10-13T06:56:06.805Z,20.52
2022-10-13T06:58:35.165Z,17.67
2022-10-13T07:01:01.732Z,16.85
2022-10-13T07:03:28.307Z,16.77
2022-10-13T07:05:54.883Z,18.67
2022-10-13T07:08:21.343Z,18.98
2022-10-13T07:10:48.717Z,15.32
2022-10-13T07:13:15.263Z,20.65
2022-10-13T07:15:41.636Z,17.75
2022-10-13T07:18:08.619Z,15.40
2022-10-13T07:20:35.709Z,16.23
2022-10-13T07:23:02.475Z,15.50
2022-10-13T07:25:28.930Z,13.82
2022-10-13T07:27:55.492Z,17.33
2022-10-13T07:30:22.223Z,19.80
2022-10-13T07:32:48.796Z,15.80
2022-10-13T07:35:15.493Z,14.82
2022-10-13T07:37:42.053Z,15.13
2022-10-13T07:40:09.053Z,25.20
2022-10-13T07:42:35.886Z,14.77
2022-10-13T07:45:02.569Z,17.17
2022-10-13T07:47:29.507Z,22.08
2022-10-13T07:49:55.928Z,19.52
2022-10-13T07:52:23.144Z,21.45
2022-10-13T07:54:50.735Z,16.08
2022-10-13T07:57:17.667Z,20.83
2022-10-13T07:59:44.429Z,21.45
2022-10-13T08:02:12.950Z,20.25
2022-10-13T08:04:39.356Z,25.13
2022-10-13T08:07:06.566Z,21.70
2022-10-13T08:09:33.870Z,20.52
2022-10-13T08:12:01.822Z,17.13
2022-10-13T08:14:29.665Z,21.92
2022-10-13T08:16:57.163Z,16.58
2022-10-13T08:19:26.208Z,17.08
2022-10-13T08:21:58.088Z,19.90
2022-10-13T08:24:26.201Z,23.15
2022-10-13T08:26:52.702Z,19.30
2022-10-13T08:29:23.894Z,22.73
2022-10-13T08:31:53.082Z,18.48
2022-10-13T08:34:20.540Z,20.27
2022-10-13T08:36:47.301Z,22.50
2022-10-13T08:39:14.189Z,19.45
2022-10-13T08:41:45.560Z,24.27
2022-10-13T08:45:06.320Z,23.88
2022-10-13T08:47:38.262Z,24.10
2022-10-13T08:50:21.407Z,21.77
2022-10-13T08:52:58.286Z,27.52
2022-10-13T08:55:35.112Z,29.08
2022-10-13T08:58:06.293Z,27.75
2022-10-13T09:00:32.667Z,28.48
2022-10-13T09:03:19.476Z,24.80
2022-10-13T09:06:13.115Z,28.55
2022-10-13T09:08:44.009Z,24.10
2022-10-13T09:11:12.454Z,26.60
2022-10-13T09:13:38.841Z,19.95
2022-10-13T09:16:05.631Z,22.88
2022-10-13T09:18:33.545Z,28.02
2022-10-13T09:21:15.499Z,26.80
2022-10-13T09:23:42.174Z,27.85
2022-10-13T09:26:16.256Z,23.02
2022-10-13T09:28:43.092Z,28.20
2022-10-13T09:31:16.954Z,30.63
2022-10-13T09:33:44.561Z,22.83
2022-10-13T09:36:13.686Z,24.45
2022-10-13T09:38:42.946Z,28.73
2022-10-13T09:41:09.248Z,27.70
2022-10-13T09:43:45.561Z,23.92
2022-10-13T09:46:26.669Z,26.75
2022-10-13T09:49:03.515Z,27.40
2022-10-13T09:51:32.537Z,30.75
2022-10-13T09:54:02.212Z,33.40
2022-10-13T09:56:38.235Z,27.10
2022-10-13T09:59:31.102Z,24.92
2022-10-13T10:02:00.052Z,30.50
2022-10-13T10:04:38.320Z,31.17
2022-10-13T10:07:20.820Z,25.42
2022-10-13T10:09:57.455Z,25.17
2022-10-13T10:12:28.663Z,25.10
2022-10-13T10:14:55.481Z,26.13
2022-10-13T10:17:55.654Z,25.95
2022-10-13T10:20:33.796Z,33.15
2022-10-13T10:23:11.128Z,27.00
2022-10-13T10:26:01.269Z,22.40
2022-10-13T10:28:33.796Z,27.13
2022-10-13T10:31:31.248Z,26.33
2022-10-13T10:34:15.394Z,28.38
2022-10-13T10:36:53.212Z,25.48
2022-10-13T10:39:27.869Z,27.08
2022-10-13T10:42:05.374Z,27.40
2022-10-13T10:44:41.069Z,27.85
2022-10-13T10:47:26.023Z,21.60
2022-10-13T10:50:05.793Z,30.85
2022-10-13T10:53:06.628Z,33.88
2022-10-13T10:55:48.587Z,28.95
2022-10-13T10:58:18.130Z,21.33
2022-10-13T11:01:14.433Z,31.02
2022-10-13T11:03:57.891Z,20.75
2022-10-13T11:06:34.051Z,22.65
2022-10-13T11:09:00.984Z,21.65
2022-10-13T11:11:33.372Z,19.60
2022-10-13T11:14:06.582Z,27.83
2022-10-13T11:16:41.072Z,22.02
2022-10-13T11:19:34.286Z,21.58
2022-10-13T11:22:00.671Z,20.73
2022-10-13T11:24:39.338Z,22.85
2022-10-13T11:27:08.963Z,25.60
2022-10-13T11:29:44.373Z,21.77
2022-10-13T11:32:26.157Z,22.02
2022-10-13T11:35:00.513Z,29.38
2022-10-13T11:37:55.839Z,25.77
2022-10-13T11:40:56.457Z,23.50
2022-10-13T11:43:44.706Z,18.58
2022-10-13T11:46:22.761Z,22.13
2022-10-13T11:49:40.898Z,23.50
2022-10-13T11:52:22.800Z,19.98
2022-10-13T11:55:12.681Z,17.45
2022-10-13T11:57:41.372Z,18.88
2022-10-13T12:00:18.907Z,22.40
2022-10-13T12:02:51.345Z,19.17
2022-10-13T12:05:24.436Z,17.40
2022-10-13T12:07:53.274Z,21.73
2022-10-13T12:10:26.991Z,21.20
2022-10-13T12:12:53.456Z,17.98
2022-10-13T12:15:43.169Z,18.52
2022-10-13T12:18:28.232Z,18.08
2022-10-13T12:20:56.641Z,18.15
2022-10-13T12:23:23.346Z,23.13
2022-10-13T12:25:57.151Z,20.25
2022-10-13T12:28:25.758Z,18.00
2022-10-13T12:30:58.795Z,16.95
2022-10-13T12:33:35.414Z,18.10
2022-10-13T12:36:18.826Z,19.52
2022-10-13T12:38:54.080Z,19.25
2022-10-13T12:41:33.241Z,23.00
2022-10-13T12:44:02.537Z,21.08
2022-10-13T12:46:43.605Z,23.55
2022-10-13T12:49:14.834Z,23.38
2022-10-13T12:51:43.232Z,18.27
2022-10-13T12:54:20.828Z,20.35
2022-10-13T12:56:48.213Z,24.52
2022-10-13T12:59:18.084Z,21.55
2022-10-13T13:01:54.618Z,25.13
2022-10-13T13:04:21.096Z,22.98
2022-10-13T13:06:56.441Z,16.77
2022-10-13T13:09:38.716Z,20.85
2022-10-13T13:12:08.171Z,16.92
2022-10-13T13:14:42.157Z,20.90
2022-10-13T13:17:12.935Z,20.55
2022-10-13T13:19:41.772Z,25.63
2022-10-13T13:22:10.196Z,18.80
2022-10-13T13:24:40.214Z,20.63
2022-10-13T13:27:18.502Z,23.67
2022-10-13T13:29:45.593Z,19.83
2022-10-13T13:32:14.064Z,20.38
2022-10-13T13:34:40.578Z,25.38
2022-10-13T13:37:14.022Z,20.92
2022-10-13T13:39:40.863Z,25.02
2022-10-13T13:42:13.513Z,25.25
2022-10-13T13:44:39.974Z,24.13
2022-10-13T13:47:15.600Z,23.25
2022-10-13T13:49:46.017Z,23.63
2022-10-13T13:52:12.454Z,24.40
2022-10-13T13:54:38.854Z,22.38
2022-10-13T13:57:05.394Z,24.13
2022-10-13T13:59:31.928Z,25.05
2022-10-13T14:01:58.693Z,20.73
2022-10-13T14:04:26.039Z,25.08
2022-10-13T14:06:52.911Z,22.27
2022-10-13T14:09:19.404Z,16.15
2022-10-13T14:11:45.839Z,22.83
2022-10-13T14:14:12.277Z,23.80
2022-10-13T14:16:38.720Z,25.38
2022-10-13T14:19:05.517Z,17.30
2022-10-13T14:21:32.031Z,18.15
2022-10-13T14:23:59.470Z,19.48
2022-10-13T14:26:26.164Z,18.23
2022-10-13T14:28:52.721Z,18.90
2022-10-13T14:31:19.151Z,23.42
2022-10-13T14:33:48.746Z,20.05
2022-10-13T14:36:18.488Z,19.67
2022-10-13T14:38:44.898Z,20.02
2022-10-13T14:41:11.674Z,22.80
2022-10-13T14:43:38.283Z,18.95
2022-10-13T14:46:06.530Z,24.00
2022-10-13T14:48:34.424Z,22.83
2022-10-13T14:51:09.228Z,23.65
2022-10-13T14:53:37.894Z,20.45
2022-10-13T14:56:19.324Z,20.13
2022-10-13T14:58:50.768Z,21.50
2022-10-13T15:01:18.015Z,20.75
2022-10-13T15:03:44.875Z,23.90
2022-10-13T15:06:16.413Z,22.15
2022-10-13T15:08:43.894Z,21.13
2022-10-13T15:11:11.492Z,16.40
2022-10-13T15:13:38.624Z,24.40
2022-10-13T15:16:06.189Z,24.92
2022-10-13T15:18:35.965Z,22.17
2022-10-13T15:21:02.814Z,21.02
2022-10-13T15:23:29.344Z,20.73
2022-10-13T15:26:00.987Z,21.27
2022-10-13T15:28:36.463Z,16.67
2022-10-13T15:31:02.958Z,22.13
2022-10-13T15:33:29.655Z,20.55
2022-10-13T15:35:56.345Z,24.40
2022-10-13T15:38:23.475Z,19.77
2022-10-13T15:40:50.057Z,25.00
2022-10-13T15:43:17.308Z,17.00
2022-10-13T15:45:53.380Z,19.52
2022-10-13T15:48:19.815Z,24.95
2022-10-13T15:50:46.232Z,21.88
2022-10-13T15:53:13.360Z,16.98
2022-10-13T15:55:40.469Z,20.10
2022-10-13T15:58:11.358Z,22.35
2022-10-13T16:00:41.137Z,22.88
2022-10-13T16:03:12.216Z,21.63
2022-10-13T16:05:40.596Z,23.00
2022-10-13T16:08:06.961Z,22.55
2022-10-13T16:10:33.376Z,20.33
2022-10-13T16:13:00.265Z,22.02
2022-10-13T16:15:27.286Z,19.65
2022-10-13T16:17:53.790Z,20.60
2022-10-13T16:20:21.389Z,23.30
2022-10-13T16:22:47.959Z,16.85
2022-10-13T16:25:14.372Z,22.80
2022-10-13T16:27:44.220Z,19.60
2022-10-13T16:30:11.817Z,24.42
2022-10-13T16:32:39.528Z,17.98
2022-10-13T16:35:07.075Z,26.30
2022-10-13T16:37:33.574Z,23.42
2022-10-13T16:39:59.936Z,24.48
2022-10-13T16:42:26.559Z,24.75
2022-10-13T16:44:53.099Z,23.98
2022-10-13T16:47:19.927Z,27.38
2022-10-13T16:49:46.990Z,25.08
2022-10-13T16:52:14.730Z,21.27
2022-10-13T16:54:43.570Z,21.80
2022-10-13T16:57:09.956Z,21.30
2022-10-13T16:59:36.649Z,17.25
2022-10-13T17:02:03.092Z,20.48
2022-10-13T17:04:30.864Z,18.65
2022-10-13T17:06:57.336Z,19.08
2022-10-13T17:09:23.688Z,18.35
2022-10-13T17:11:50.070Z,14.52
2022-10-13T17:14:16.414Z,17.00
2022-10-13T17:16:44.074Z,16.45
2022-10-13T17:19:10.533Z,16.77
2022-10-13T17:21:37.159Z,18.90
2022-10-13T17:24:05.635Z,20.70
2022-10-13T17:26:32.819Z,19.25
2022-10-13T17:28:59.307Z,25.25
2022-10-13T17:31:25.802Z,14.85
2022-10-13T17:33:53.063Z,16.92
2022-10-13T17:36:28.154Z,23.60
2022-10-13T17:38:56.205Z,21.02
2022-10-13T17:41:24.302Z,26.85
2022-10-13T17:43:51.614Z,24.27
2022-10-13T17:46:41.865Z,28.50
2022-10-13T17:49:11.143Z,22.40
2022-10-13T17:51:38.155Z,25.90
2022-10-13T17:54:06.837Z,24.42
2022-10-13T17:56:35.684Z,23.75
2022-10-13T17:59:02.464Z,24.02
2022-10-13T18:01:31.771Z,24.58
2022-10-13T18:04:08.297Z,25.90
2022-10-13T18:06:39.747Z,24.10
2022-10-13T18:09:09.177Z,27.17
2022-10-13T18:11:36.204Z,25.55
2022-10-13T18:14:04.311Z,33.67
2022-10-13T18:16:35.127Z,33.70
2022-10-13T18:19:04.097Z,32.22
2022-10-13T18:21:31.223Z,27.35
2022-10-13T18:24:02.903Z,29.85
2022-10-13T18:26:32.064Z,28.77
2022-10-13T18:28:58.709Z,37.22
2022-10-13T18:31:30.501Z,29.52
2022-10-13T18:34:03.895Z,25.08
2022-10-13T18:36:33.048Z,22.75
2022-10-13T18:39:11.044Z,24.65
2022-10-13T18:41:39.607Z,29.67
2022-10-13T18:44:07.114Z,32.88
2022-10-13T18:46:34.578Z,26.15
2022-10-13T18:49:01.207Z,29.52
2022-10-13T18:51:33.385Z,25.05
2022-10-13T18:54:02.398Z,24.92
2022-10-13T18:56:30.465Z,28.42
2022-10-13T18:58:59.841Z,33.30
2022-10-13T19:01:28.761Z,23.70
2022-10-13T19:03:55.856Z,31.67
2022-10-13T19:06:26.603Z,30.33
2022-10-13T19:09:02.068Z,24.35
2022-10-13T19:11:29.507Z,24.95
2022-10-13T19:13:57.053Z,28.10
2022-10-13T19:16:25.186Z,28.85
2022-10-13T19:18:52.324Z,27.88
2022-10-13T19:21:20.150Z,25.90
2022-10-13T19:23:47.154Z,23.38
2022-10-13T19:26:25.135Z,28.05
2022-10-13T19:29:01.591Z,22.25
2022-10-13T19:31:30.142Z,27.35
2022-10-13T19:33:59.320Z,27.00
2022-10-13T19:36:32.968Z,30.58
2022-10-13T19:39:05.015Z,23.45
2022-10-13T19:41:32.208Z,23.83
2022-10-13T19:43:59.502Z,28.88
2022-10-13T19:46:35.864Z,28.90
2022-10-13T19:49:03.545Z,32.95
2022-10-13T19:51:29.966Z,33.67
2022-10-13T19:53:56.488Z,34.47
2022-10-13T19:56:31.502Z,32.13
2022-10-13T19:58:58.695Z,42.08
2022-10-13T20:01:25.144Z,32.50
2022-10-13T20:03:51.580Z,39.22
2022-10-13T20:06:19.294Z,33.88
2022-10-13T20:08:46.186Z,39.53
2022-10-13T20:11:20.699Z,32.00
2022-10-13T20:13:49.669Z,43.75
2022-10-13T20:16:18.610Z,33.22
2022-10-13T20:18:45.352Z,38.70
2022-10-13T20:21:12.852Z,33.75
2022-10-13T20:23:40.829Z,34.15
2022-10-13T20:26:09.589Z,38.58
2022-10-13T20:28:42.733Z,39.33
2022-10-13T20:31:12.791Z,39.35
2022-10-13T20:33:39.787Z,41.00
2022-10-13T20:36:09.157Z,39.50
2022-10-13T20:38:35.994Z,48.13
2022-10-13T20:41:28.316Z,43.05
2022-10-13T20:43:57.069Z,42.03
2022-10-13T20:46:23.980Z,41.40
2022-10-13T20:49:09.906Z,44.28
2022-10-13T20:51:37.458Z,40.80
2022-10-13T20:54:04.078Z,44.75
2022-10-13T20:56:30.600Z,51.65
2022-10-13T20:59:02.188Z,47.08
2022-10-13T21:01:28.688Z,41.42
2022-10-13T21:03:55.640Z,47.78
2022-10-13T21:06:27.356Z,44.42
2022-10-13T21:09:00.053Z,42.22
2022-10-13T21:11:26.923Z,45.50
2022-10-13T21:13:53.553Z,44.97
2022-10-13T21:16:28.901Z,45.35
2022-10-13T21:18:57.204Z,42.72
2022-10-13T21:21:28.637Z,43.47
2022-10-13T21:23:57.580Z,45.90
2022-10-13T21:26:26.138Z,44.58
2022-10-13T21:28:53.041Z,43.25
2022-10-13T21:31:22.170Z,46.10
2022-10-13T21:33:49.627Z,40.60
2022-10-13T21:36:19.431Z,46.03
2022-10-13T21:38:47.078Z,44.47
2022-10-13T21:41:14.900Z,40.67
2022-10-13T21:43:42.412Z,37.22
2022-10-13T21:46:16.834Z,42.17
2022-10-13T21:48:44.392Z,46.30
2022-10-13T21:51:22.407Z,44.75
2022-10-13T21:53:51.176Z,42.03
2022-10-13T21:56:18.541Z,37.58
2022-10-13T21:58:45.656Z,39.72
2022-10-13T22:01:12.204Z,39.05
2022-10-13T22:03:39.249Z,42.92
2022-10-13T22:06:08.152Z,37.63
2022-10-13T22:08:42.582Z,40.40
2022-10-13T22:11:14.370Z,39.33
2022-10-13T22:13:40.876Z,43.85
2022-10-13T22:16:11.495Z,42.30
2022-10-13T22:18:40.943Z,41.67
2022-10-13T22:21:11.029Z,38.35
2022-10-13T22:23:37.479Z,43.00
2022-10-13T22:26:04.086Z,39.22
2022-10-13T22:28:36.076Z,41.45
2022-10-13T22:31:09.368Z,40.65
2022-10-13T22:33:37.200Z,36.65
2022-10-13T22:36:11.762Z,39.63
2022-10-13T22:38:38.290Z,41.08
2022-10-13T22:41:07.752Z,44.10
2022-10-13T22:43:34.864Z,41.78
2022-10-13T22:46:14.363Z,42.17
2022-10-13T22:48:41.786Z,41.28
2022-10-13T22:51:13.281Z,41.65
2022-10-13T22:53:39.839Z,38.60
2022-10-13T22:56:14.163Z,41.22
2022-10-13T22:58:40.752Z,40.42
2022-10-13T23:01:09.562Z,37.65
2022-10-13T23:03:37.114Z,38.63
2022-10-13T23:06:04.384Z,40.97
2022-10-13T23:08:30.958Z,40.13
2022-10-13T23:10:57.865Z,41.63
2022-10-13T23:13:24.739Z,38.55
2022-10-13T23:15:52.396Z,46.17
2022-10-13T23:18:18.921Z,46.58
2022-10-13T23:20:45.267Z,40.25
2022-10-13T23:23:13.864Z,41.13
2022-10-13T23:25:40.241Z,39.88
2022-10-13T23:28:06.608Z,45.03
2022-10-13T23:30:32.964Z,48.67
2022-10-13T23:32:59.296Z,47.00
2022-10-13T23:35:25.804Z,51.63
2022-10-13T23:37:52.856Z,53.88
2022-10-13T23:40:19.919Z,44.72
2022-10-13T23:42:46.436Z,49.17
2022-10-13T23:45:12.869Z,47.55
2022-10-13T23:47:40.236Z,48.88
2022-10-13T23:50:06.807Z,53.17
2022-10-13T23:52:34.024Z,52.08
2022-10-13T23:55:00.415Z,48.75
2022-10-13T23:57:29.689Z,51.80
2022-10-13T23:59:56.094Z,50.47
